📊 Raw Sensor Data
Showing records 39451 to 39475 of 84,946 total
| ID | Distance (ft) | Battery V | Battery A | Int Temp (°F) | Int Humid (%) | Ext Temp (°F) | Solar V | RSSI | SNR | Time Stamp |
|---|---|---|---|---|---|---|---|---|---|---|
| 45508 | 15.7 | 4.03 | 87 | 64 | 42 | 66 | 4.50 | -72 | 8 | 07/06/2025 08:00 AM |
| 45507 | 15.8 | 3.95 | 49 | 63 | 42 | 67 | 4.50 | -71 | 8 | 07/06/2025 07:45 AM |
| 45506 | 15.7 | 3.89 | 15 | 62 | 41 | 68 | 4.50 | -70 | 7 | 07/06/2025 07:30 AM |
| 45505 | 15.7 | 3.85 | 16 | 59 | 41 | 67 | 4.50 | -70 | 8 | 07/06/2025 07:15 AM |
| 45504 | 15.6 | 3.87 | 9 | 56 | 42 | 67 | 4.50 | -69 | 8 | 07/06/2025 07:00 AM |
| 45503 | 15.6 | 3.87 | 5 | 54 | 42 | 62 | 4.50 | -70 | 8 | 07/06/2025 06:45 AM |
| 45502 | 15.5 | 3.81 | 0 | 52 | 43 | 60 | 4.50 | -69 | 8 | 07/06/2025 06:30 AM |
| 45501 | 15.5 | 3.85 | 0 | 50 | 43 | 55 | 4.50 | -69 | 8 | 07/06/2025 06:15 AM |
| 45500 | 15.4 | 3.79 | -9 | 50 | 43 | 52 | 1.50 | -70 | 8 | 07/06/2025 05:45 AM |
| 45499 | 15.4 | 3.80 | -5 | 50 | 43 | 53 | 0.40 | -70 | 8 | 07/06/2025 05:30 AM |
| 45498 | 15.4 | 3.85 | -5 | 50 | 43 | 52 | 0.00 | -69 | 7 | 07/06/2025 05:15 AM |
| 45497 | 15.4 | 3.80 | -5 | 50 | 43 | 53 | 0.10 | -69 | 8 | 07/06/2025 05:00 AM |
| 45496 | 15.4 | 3.80 | -5 | 50 | 43 | 52 | 0.00 | -69 | 8 | 07/06/2025 04:45 AM |
| 45495 | 15.4 | 3.80 | -5 | 50 | 43 | 53 | 0.00 | -69 | 8 | 07/06/2025 04:30 AM |
| 45494 | 15.4 | 3.85 | -5 | 50 | 43 | 52 | 0.00 | -70 | 8 | 07/06/2025 04:15 AM |
| 45493 | 15.4 | 3.85 | -5 | 49 | 44 | 51 | 0.00 | -70 | 8 | 07/06/2025 04:00 AM |
| 45492 | 15.4 | 3.80 | -5 | 49 | 44 | 51 | 0.00 | -69 | 8 | 07/06/2025 03:45 AM |
| 45491 | 15.4 | 3.79 | -5 | 49 | 44 | 51 | 0.00 | -69 | 8 | 07/06/2025 03:30 AM |
| 45490 | 15.4 | 3.79 | -5 | 50 | 44 | 52 | 0.00 | -69 | 8 | 07/06/2025 03:15 AM |
| 45489 | 15.4 | 3.85 | -5 | 51 | 44 | 52 | 0.00 | -69 | 8 | 07/06/2025 03:00 AM |
| 45488 | 15.4 | 3.85 | -5 | 51 | 44 | 53 | 0.00 | -69 | 9 | 07/06/2025 02:45 AM |
| 45487 | 15.4 | 3.79 | -5 | 52 | 44 | 54 | 0.00 | -69 | 8 | 07/06/2025 02:30 AM |
| 45486 | 15.4 | 3.79 | -5 | 52 | 44 | 54 | 0.00 | -69 | 8 | 07/06/2025 02:15 AM |
| 45485 | 15.4 | 3.85 | -5 | 53 | 44 | 55 | 0.10 | -69 | 8 | 07/06/2025 02:00 AM |
| 45484 | 15.4 | 3.78 | -35 | 53 | 44 | 54 | 0.00 | -68 | 8 | 07/06/2025 01:45 AM |